Detall de PIREP

Printer-friendly versionPDF version

[2015/04/06 10:48:00]
Flight IATA:CT1004
Pilot Number:012
Company ICAO:CAT
Aircraft Type:B763/F
PAX:263
Departing Airport: LEDA
Destination Airport: LIEA
Alternate Airport:LIEO
Online: VATSIM
Route:REBUL UM601 BCN UM985 AGENA UL16 VERSO UM24 LAPIT UN725 ORKUM UM603 ELSAG
Flight Level:F380
No Slew and time accel
No pause
Crash detect
Detect pilot in Cockpit between each 30 and 45 minutes
10:48 Zero fuel Weight: 254660 Lbs, Fuel Weight: 20976 Lbs
10:48 VATSIM:LEDA 051630Z 23001KT CAVOK 19/07 Q1010
10:48 VATSIM:LIEA 061020Z 05005KT 350V090 9999 FEW035 15/03 Q1019
10:48 EASTER CHARTER
10:48 Parking Brakes off
10:51 Take-off
10:51 Take off Weight: 274567 Lbs
10:51 Wind: 122º @ 005 Knots Heading: 313º
10:51 POS N41º 43´ 46´´ E000º 31´ 59´´
10:51 Gear Up: 172 Knots
10:51 Flaps:2 at 172 Knots
10:52 Flaps:1 at 196 Knots
10:52 Flaps:0 at 205 Knots
11:06 Wind:276º@020 Knots Heading: 070º Ground Speed: 482 Knots Altitude 37965 ft
11:06 TOC
11:06 Fuel Weight: 14104 Lb
11:21 Wind:277º@031 Knots Heading: 102º Ground Speed: 495 Knots Altitude 38205 ft
11:30 TOD
11:30 Fuel Weight: 10481 Lb
11:36 Wind:346º@043 Knots Heading: 093º Ground Speed: 436 Knots Altitude 18549 ft
11:42 Flaps:1 at 235 Knots
11:43 Flaps:2 at 229 Knots
11:50 Flaps:3 at 182 Knots
11:50 Gear Down: 172 Knots
11:50 Flaps:4 at 154 Knots
11:51 Wind:006º@006 Knots Heading: 209º Ground Speed: 168 Knots Altitude 2335 ft
11:52 Flaps:5 at 160 Knots
11:52 Flaps:6 at 145 Knots
11:53 TouchDown:Rate -304 ft/min Speed: 123 Knots
11:53 VATSIM:LIEA 061120Z 02009KT 350V060 9999 FEW035 15/M00 Q1019
11:54 Land
11:54 Wind:353º@006 Knots
11:54 Heading: 208º
11:54 Flight Duration: 01:03
11:54 Landing Weight: 262789 Lbs
11:54 POS N40º 37´ 58´´ E008º 17´ 29´´
11:57 Parking brakes on
11:57 Block to Block Duration: 01:09
11:57 Final Fuel: 7619 Lbls
11:57 Spent Fuel: 13357 Lbls
11:57 Flight Length: 407 NM
11:57 TOD Land Length: 117 NM

Exportar CSV

Powered by Drupal - Modified by Danger4k